Time;durP1;ratioP1;P1;durP2;ratioP2;P2;SDS_P1;SDS_P2;PMS_P1;PMS_P2;Temp;Humidity;BMP_temperature;BMP_pressure;BME280_temperature;BME280_humidity;BME280_pressure;Samples;Min_cycle;Max_cycle;Signal;HPM_P1;HPM_P2
2024/01/29 00:00:21;;;;;;;;;60.00;49.00;;;;;4.89;100.00;102431.44;5084801;28;45622;-79
2024/01/29 00:02:46;;;;;;;;;60.75;47.00;;;;;5.00;100.00;102454.22;5065695;28;45373;-79
2024/01/29 00:05:15;;;;;;;;;66.25;51.25;;;;;4.95;100.00;102441.94;5080866;28;45677;-79
2024/01/29 00:07:41;;;;;;;;;59.25;47.25;;;;;5.01;100.00;102458.56;5088472;27;46353;-79
2024/01/29 00:10:07;;;;;;;;;55.50;45.75;;;;;4.92;100.00;102442.81;5088494;27;45293;-78
2024/01/29 00:12:32;;;;;;;;;64.75;49.25;;;;;5.02;100.00;102468.19;5082942;28;45446;-79
2024/01/29 00:14:58;;;;;;;;;63.00;49.25;;;;;4.88;100.00;102463.75;5073099;27;45593;-78
2024/01/29 00:17:23;;;;;;;;;65.25;49.75;;;;;4.77;100.00;102442.78;5082783;27;46226;-78
2024/01/29 00:19:48;;;;;;;;;58.50;48.00;;;;;4.97;100.00;102482.16;5083513;28;45348;-79
2024/01/29 00:22:14;;;;;;;;;60.00;47.50;;;;;4.77;100.00;102444.53;5068135;28;45392;-79
2024/01/29 00:24:40;;;;;;;;;54.00;45.50;;;;;4.70;100.00;102427.91;5085128;27;45734;-79
2024/01/29 00:27:05;;;;;;;;;63.75;49.50;;;;;4.78;100.00;102444.50;5080220;28;45525;-79
2024/01/29 00:29:31;;;;;;;;;59.25;48.75;;;;;4.93;100.00;102473.41;5090087;27;45285;-79
2024/01/29 00:31:58;;;;;;;;;64.25;52.25;;;;;4.89;100.00;102471.66;5084161;28;46243;-79
2024/01/29 00:34:23;;;;;;;;;57.25;47.00;;;;;4.93;100.00;102485.63;5087343;27;45523;-78
2024/01/29 00:36:48;;;;;;;;;61.50;50.50;;;;;4.91;100.00;102480.38;5091876;27;46560;-79
2024/01/29 00:39:14;;;;;;;;;62.75;49.25;;;;;4.76;100.00;102450.63;5090970;27;45402;-78
2024/01/29 00:41:39;;;;;;;;;64.00;49.25;;;;;4.86;100.00;102471.63;5085697;27;45306;-79
2024/01/29 00:44:05;;;;;;;;;59.50;47.00;;;;;4.86;100.00;102470.75;5090607;27;48047;-78
2024/01/29 00:46:30;;;;;;;;;57.50;45.25;;;;;4.82;100.00;102469.00;5092638;27;47759;-79
2024/01/29 00:48:56;;;;;;;;;60.25;46.75;;;;;4.83;100.00;102470.75;5080857;28;45673;-78
2024/01/29 00:51:21;;;;;;;;;57.50;47.75;;;;;4.66;100.00;102444.47;5061196;28;45505;-78
2024/01/29 00:53:47;;;;;;;;;57.75;47.00;;;;;4.80;100.00;102474.25;5079123;27;48532;-78
2024/01/29 00:56:13;;;;;;;;;63.50;48.25;;;;;4.55;100.00;102431.34;5076344;28;47186;-78
2024/01/29 00:58:40;;;;;;;;;59.75;46.75;;;;;4.70;100.00;102457.63;5092381;27;45768;-79
2024/01/29 01:01:05;;;;;;;;;53.25;43.75;;;;;4.84;100.00;102483.00;5098169;27;45288;-78
2024/01/29 01:03:30;;;;;;;;;52.25;42.25;;;;;4.83;100.00;102484.72;5096849;27;46908;-78
2024/01/29 01:05:56;;;;;;;;;58.00;44.00;;;;;4.73;100.00;102465.50;5087562;28;46392;-78
2024/01/29 01:08:21;;;;;;;;;61.00;48.00;;;;;4.72;100.00;102460.22;5089478;27;47921;-78
2024/01/29 01:10:46;;;;;;;;;57.75;43.50;;;;;4.83;100.00;102482.13;5089265;27;45268;-78
2024/01/29 01:13:12;;;;;;;;;56.75;47.75;;;;;4.63;100.00;102439.22;5103042;27;45264;-78
2024/01/29 01:15:37;;;;;;;;;55.00;43.00;;;;;4.85;100.00;102477.75;5085625;27;45280;-78
2024/01/29 01:18:03;;;;;;;;;53.50;41.75;;;;;4.78;100.00;102469.88;5076739;27;46447;-78
2024/01/29 01:20:29;;;;;;;;;51.50;41.50;;;;;4.86;100.00;102476.00;5096877;27;45502;-78
2024/01/29 01:22:54;;;;;;;;;53.50;45.00;;;;;4.27;100.00;102369.25;5085578;27;45368;-78
2024/01/29 01:25:20;;;;;;;;;51.25;40.75;;;;;4.70;100.00;102449.75;5095020;27;46218;-78
2024/01/29 01:27:45;;;;;;;;;48.25;42.00;;;;;4.87;100.00;102476.03;5073900;28;48488;-78
2024/01/29 01:30:10;;;;;;;;;46.75;39.75;;;;;4.74;100.00;102461.13;5086679;28;45427;-78
2024/01/29 01:32:36;;;;;;;;;46.75;40.75;;;;;4.79;100.00;102466.34;5095356;27;45376;-78
2024/01/29 01:35:02;;;;;;;;;48.75;40.25;;;;;4.59;100.00;102445.31;5091554;27;45353;-78
2024/01/29 01:37:27;;;;;;;;;50.00;41.75;;;;;4.72;100.00;102476.81;5078441;27;45277;-78
2024/01/29 01:39:53;;;;;;;;;43.25;39.75;;;;;4.72;100.00;102476.81;5085509;27;45420;-78
2024/01/29 01:42:19;;;;;;;;;49.50;39.50;;;;;4.27;100.00;102402.41;5086555;27;45428;-78
2024/01/29 01:44:46;;;;;;;;;46.75;38.75;;;;;4.70;100.00;102470.72;5077615;27;46817;-78
2024/01/29 01:47:11;;;;;;;;;44.75;38.25;;;;;4.74;100.00;102479.47;5101390;27;45549;-78
2024/01/29 01:49:37;;;;;;;;;47.75;40.25;;;;;4.71;100.00;102472.44;5083855;27;45323;-79
2024/01/29 01:52:04;;;;;;;;;58.00;40.75;;;;;4.71;100.00;102474.22;5087882;27;45453;-78
2024/01/29 01:54:30;;;;;;;;;53.25;42.25;;;;;4.72;100.00;102483.81;5099413;27;45306;-78
2024/01/29 01:56:57;;;;;;;;;54.00;45.25;;;;;4.64;100.00;102462.84;5088480;27;45486;-78
2024/01/29 01:59:23;;;;;;;;;46.25;40.00;;;;;4.73;100.00;102488.19;5101946;27;45451;-78
2024/01/29 02:01:49;;;;;;;;;53.00;43.75;;;;;4.51;100.00;102449.69;5095112;27;45473;-78
2024/01/29 02:04:14;;;;;;;;;50.75;41.00;;;;;4.60;100.00;102471.56;5096435;27;45926;-78
2024/01/29 02:06:40;;;;;;;;;46.50;39.50;;;;;4.63;100.00;102487.28;5099041;27;45368;-78
2024/01/29 02:09:06;;;;;;;;;56.00;45.50;;;;;4.62;100.00;102475.03;5071174;28;45495;-78
2024/01/29 02:11:31;;;;;;;;;47.50;40.25;;;;;4.50;100.00;102453.16;5069208;28;45475;-78
2024/01/29 02:13:56;;;;;;;;;60.00;42.75;;;;;4.55;100.00;102465.41;5077241;28;46334;-78
2024/01/29 02:16:22;;;;;;;;;52.25;42.25;;;;;4.65;100.00;102488.16;5072963;28;45272;-78
2024/01/29 02:18:47;;;;;;;;;57.75;44.75;;;;;4.64;100.00;102491.66;5076827;28;45479;-78
2024/01/29 02:21:13;;;;;;;;;57.25;45.50;;;;;4.39;100.00;102444.38;5077421;28;49132;-78
2024/01/29 02:23:43;;;;;;;;;51.75;40.00;;;;;4.63;100.00;102482.03;5073749;28;46100;-78
2024/01/29 02:26:08;;;;;;;;;53.75;43.50;;;;;4.31;100.00;102433.88;5060507;28;46219;-78
2024/01/29 02:28:33;;;;;;;;;53.75;42.25;;;;;4.60;100.00;102483.78;5060719;28;58082;-78
2024/01/29 02:30:59;;;;;;;;;42.00;35.00;;;;;4.45;100.00;102475.84;5060180;28;61689;-77
2024/01/29 02:33:24;;;;;;;;;59.00;45.50;;;;;4.59;100.00;102496.00;5077972;28;53545;-78
2024/01/29 02:35:49;;;;;;;;;55.75;42.50;;;;;4.42;100.00;102460.97;5077799;28;45391;-77
2024/01/29 02:38:15;;;;;;;;;57.75;43.00;;;;;4.18;100.00;102426.84;5064596;28;45358;-77
2024/01/29 02:40:40;;;;;;;;;56.00;47.00;;;;;4.46;100.00;102473.22;5077338;28;45449;-78
2024/01/29 02:43:05;;;;;;;;;53.25;45.75;;;;;4.45;100.00;102465.38;5059570;28;46599;-78
2024/01/29 02:45:31;;;;;;;;;56.25;47.00;;;;;4.35;100.00;102456.56;5078834;28;45394;-77
2024/01/29 02:47:56;;;;;;;;;51.75;41.75;;;;;4.50;100.00;102467.13;5075591;28;45309;-77
2024/01/29 02:50:22;;;;;;;;;55.75;47.00;;;;;4.46;100.00;102475.84;5062134;28;48952;-77
2024/01/29 02:52:48;;;;;;;;;59.75;45.25;;;;;4.39;100.00;102460.09;5081265;28;45502;-78
2024/01/29 02:55:14;;;;;;;;;58.75;45.25;;;;;4.30;100.00;102445.22;5075057;28;45313;-78
2024/01/29 02:57:39;;;;;;;;;57.50;45.50;;;;;4.28;100.00;102433.88;5061022;28;45319;-78
2024/01/29 03:00:05;;;;;;;;;55.25;47.25;;;;;4.50;100.00;102469.75;5081209;28;45292;-78
2024/01/29 03:02:30;;;;;;;;;61.75;50.50;;;;;4.28;100.00;102439.09;5081451;28;46297;-77
2024/01/29 03:04:56;;;;;;;;;61.25;48.75;;;;;4.35;100.00;102448.72;5079479;28;52521;-78
2024/01/29 03:07:21;;;;;;;;;58.50;48.00;;;;;4.46;100.00;102473.22;5078043;27;45490;-78
2024/01/29 03:09:46;;;;;;;;;63.00;52.00;;;;;4.42;100.00;102467.94;5083538;28;45430;-78
2024/01/29 03:12:12;;;;;;;;;59.00;48.75;;;;;4.19;100.00;102450.38;5062435;28;46870;-78
2024/01/29 03:14:38;;;;;;;;;65.50;49.25;;;;;4.22;100.00;102432.97;5082822;28;45358;-78
2024/01/29 03:17:03;;;;;;;;;57.25;46.50;;;;;4.55;100.00;102490.72;5083368;28;45424;-77
2024/01/29 03:19:28;;;;;;;;;61.00;50.25;;;;;4.50;100.00;102485.47;5083481;28;54840;-77
2024/01/29 03:21:54;;;;;;;;;63.00;51.00;;;;;4.53;100.00;102495.97;5086658;28;47043;-78
2024/01/29 03:24:19;;;;;;;;;63.75;50.00;;;;;4.20;100.00;102435.56;5081996;28;47498;-79
2024/01/29 03:26:44;;;;;;;;;69.75;48.75;;;;;4.36;100.00;102463.56;5068403;28;51435;-78
2024/01/29 03:29:09;;;;;;;;;63.00;49.25;;;;;4.16;100.00;102431.16;5085413;28;45443;-77
2024/01/29 03:31:35;;;;;;;;;64.50;51.50;;;;;4.53;100.00;102489.84;5078236;28;55413;-78
2024/01/29 03:34:00;;;;;;;;;66.25;52.75;;;;;4.37;100.00;102462.72;5080894;28;45344;-78
2024/01/29 03:36:26;;;;;;;;;62.25;49.75;;;;;4.47;100.00;102469.75;5081190;28;45380;-78
2024/01/29 03:38:51;;;;;;;;;61.75;48.00;;;;;4.53;100.00;102489.84;5080641;28;45473;-78
2024/01/29 03:41:16;;;;;;;;;60.00;48.50;;;;;4.38;100.00;102464.47;5071781;28;45501;-78
2024/01/29 03:43:42;;;;;;;;;60.75;48.50;;;;;4.31;100.00;102444.34;5058331;28;45277;-77
2024/01/29 03:46:07;;;;;;;;;64.25;51.50;;;;;4.24;100.00;102449.53;5072699;28;45326;-78
2024/01/29 03:48:32;;;;;;;;;58.75;47.25;;;;;4.50;100.00;102488.09;5079793;28;45520;-77
2024/01/29 03:50:58;;;;;;;;;63.50;50.25;;;;;4.36;100.00;102462.69;5061212;28;55839;-77
2024/01/29 03:53:23;;;;;;;;;64.75;52.00;;;;;4.25;100.00;102440.84;5074738;28;45346;-77
2024/01/29 03:55:48;;;;;;;;;63.75;48.00;;;;;4.29;100.00;102443.44;5056779;28;45398;-77
2024/01/29 03:58:14;;;;;;;;;64.75;50.00;;;;;4.44;100.00;102464.50;5079191;28;47294;-78
2024/01/29 04:00:39;;;;;;;;;67.25;52.00;;;;;4.52;100.00;102478.50;5079988;28;45468;-77
2024/01/29 04:03:06;;;;;;;;;68.75;49.25;;;;;4.29;100.00;102443.44;5079987;28;45281;-77
2024/01/29 04:05:31;;;;;;;;;66.00;51.75;;;;;4.54;100.00;102483.75;5080209;28;45395;-78
2024/01/29 04:07:57;;;;;;;;;66.50;51.00;;;;;4.27;100.00;102439.09;5066498;28;45482;-78
2024/01/29 04:10:22;;;;;;;;;68.00;51.50;;;;;4.44;100.00;102464.50;5080051;28;45380;-78
2024/01/29 04:12:47;;;;;;;;;61.00;48.25;;;;;4.40;100.00;102457.47;5069399;28;45442;-78
2024/01/29 04:15:13;;;;;;;;;59.00;50.00;;;;;4.50;100.00;102469.75;5080197;28;45495;-78
2024/01/29 04:17:38;;;;;;;;;65.50;50.75;;;;;4.60;100.00;102481.16;5062811;28;45467;-78
2024/01/29 04:20:05;;;;;;;;;58.00;48.50;;;;;4.50;100.00;102467.13;5083615;28;46125;-78
2024/01/29 04:22:32;;;;;;;;;60.00;48.75;;;;;4.49;100.00;102469.75;5083391;28;45424;-78
2024/01/29 04:24:58;;;;;;;;;53.75;41.00;;;;;4.56;100.00;102489.84;5087013;28;45424;-78
2024/01/29 04:27:23;;;;;;;;;68.75;47.25;;;;;4.30;100.00;102447.84;5086256;28;45559;-78
2024/01/29 04:29:49;;;;;;;;;58.25;48.00;;;;;4.44;100.00;102461.00;5081555;28;46490;-78
2024/01/29 04:32:14;;;;;;;;;59.50;47.00;;;;;4.47;100.00;102471.50;5083368;28;45388;-78
2024/01/29 04:34:39;;;;;;;;;60.00;46.25;;;;;4.43;100.00;102477.56;5057969;28;45350;-78
2024/01/29 04:37:05;;;;;;;;;55.75;44.00;;;;;4.46;100.00;102483.72;5079014;28;45415;-78
2024/01/29 04:39:30;;;;;;;;;58.50;47.00;;;;;4.44;100.00;102476.72;5079647;28;46739;-78
2024/01/29 04:41:55;;;;;;;;;49.00;41.00;;;;;4.60;100.00;102502.13;5059584;28;45331;-78
2024/01/29 04:44:21;;;;;;;;;59.25;45.50;;;;;4.64;100.00;102514.38;5074956;28;45409;-78
2024/01/29 04:46:46;;;;;;;;;57.75;44.50;;;;;4.56;100.00;102506.47;5062176;28;45501;-78
2024/01/29 04:49:11;;;;;;;;;58.75;45.00;;;;;4.63;100.00;102502.13;5069413;28;47993;-78
2024/01/29 04:51:37;;;;;;;;;54.75;44.50;;;;;4.50;100.00;102488.09;5076723;28;45486;-78
2024/01/29 04:54:03;;;;;;;;;51.25;40.75;;;;;4.67;100.00;102510.03;5073106;28;45349;-78
2024/01/29 04:56:29;;;;;;;;;52.00;39.75;;;;;4.54;100.00;102499.47;5064441;28;45503;-78
2024/01/29 04:58:54;;;;;;;;;42.25;36.75;;;;;4.65;100.00;102496.00;5069110;28;46903;-78
2024/01/29 05:01:19;;;;;;;;;54.50;41.00;;;;;4.54;100.00;102492.50;5079776;28;45352;-78
2024/01/29 05:03:45;;;;;;;;;51.00;39.25;;;;;4.56;100.00;102498.59;5079679;28;45587;-78
2024/01/29 05:06:11;;;;;;;;;46.75;41.00;;;;;4.66;100.00;102510.00;5077290;28;45450;-78
2024/01/29 05:08:36;;;;;;;;;49.75;40.00;;;;;4.61;100.00;102498.63;5066293;27;48306;-79
2024/01/29 05:11:02;;;;;;;;;50.75;39.50;;;;;4.55;100.00;102496.84;5066698;28;45479;-78
2024/01/29 05:13:27;;;;;;;;;49.25;40.25;;;;;4.57;100.00;102507.34;5067522;28;45328;-78
2024/01/29 05:15:52;;;;;;;;;42.50;39.50;;;;;4.46;100.00;102494.19;5086322;28;45400;-78
2024/01/29 05:18:18;;;;;;;;;45.00;38.25;;;;;4.45;100.00;102487.19;5077137;28;45414;-79
2024/01/29 05:20:43;;;;;;;;;35.50;34.25;;;;;4.46;100.00;102475.84;5076742;28;45305;-78
2024/01/29 05:23:08;;;;;;;;;43.25;37.00;;;;;4.69;100.00;102515.25;5062126;28;45329;-78
2024/01/29 05:25:34;;;;;;;;;46.50;39.50;;;;;4.62;100.00;102506.47;5080367;28;45614;-78
2024/01/29 05:28:00;;;;;;;;;38.50;35.00;;;;;4.59;100.00;102496.00;5079404;28;45676;-78
2024/01/29 05:30:25;;;;;;;;;41.25;36.25;;;;;4.73;100.00;102525.75;5080149;28;45442;-78
2024/01/29 05:32:51;;;;;;;;;39.00;31.75;;;;;4.76;100.00;102518.78;5078896;28;45383;-77
2024/01/29 05:35:16;;;;;;;;;34.00;32.50;;;;;4.76;100.00;102521.38;5081700;28;45454;-78
2024/01/29 05:37:41;;;;;;;;;50.50;36.25;;;;;4.69;100.00;102508.25;5064520;28;47319;-78
2024/01/29 05:40:09;;;;;;;;;1.25;0.00;;;;;4.61;100.00;102499.47;5064388;28;48497;-78
2024/01/29 05:42:34;;;;;;;;;36.75;26.50;;;;;4.57;100.00;102486.38;5082310;28;45466;-78
2024/01/29 05:45:00;;;;;;;;;36.50;32.75;;;;;4.53;100.00;102492.47;5081607;28;45497;-77
2024/01/29 05:47:25;;;;;;;;;34.75;31.75;;;;;4.64;100.00;102515.25;5063291;28;49232;-78
2024/01/29 05:49:50;;;;;;;;;37.25;33.25;;;;;4.58;100.00;102504.72;5081745;28;45485;-78
2024/01/29 05:52:16;;;;;;;;;32.25;30.50;;;;;4.58;100.00;102506.47;5082045;28;46983;-78
2024/01/29 05:54:41;;;;;;;;;36.00;32.75;;;;;4.64;100.00;102510.00;5065659;28;45577;-79
2024/01/29 05:57:10;;;;;;;;;29.75;27.25;;;;;4.67;100.00;102523.13;5064290;28;46796;-78
2024/01/29 05:59:38;;;;;;;;;32.50;32.50;;;;;4.64;100.00;102519.59;5083431;28;45387;-79
2024/01/29 06:02:04;;;;;;;;;26.50;25.50;;;;;4.41;100.00;102500.28;5085418;28;45294;-78
2024/01/29 06:04:29;;;;;;;;;40.00;30.25;;;;;4.43;100.00;102490.66;5064832;28;45727;-78
2024/01/29 06:06:54;;;;;;;;;37.75;33.50;;;;;4.52;100.00;102512.53;5082731;27;56710;-78
2024/01/29 06:09:19;;;;;;;;;28.25;26.25;;;;;4.64;100.00;102549.31;5083611;28;45525;-78
2024/01/29 06:11:51;;;;;;;;;30.25;28.50;;;;;4.60;100.00;102541.41;5075520;28;45738;-78
2024/01/29 06:14:17;;;;;;;;;35.75;31.00;;;;;4.60;100.00;102537.06;5080413;28;45458;-78
2024/01/29 06:16:43;;;;;;;;;34.25;32.00;;;;;4.60;100.00;102539.69;5065793;28;46939;-78
2024/01/29 06:19:14;;;;;;;;;31.50;29.75;;;;;4.45;100.00;102513.38;5077234;28;45760;-78
2024/01/29 06:21:39;;;;;;;;;30.75;28.00;;;;;4.65;100.00;102558.03;5064954;28;45452;-78
2024/01/29 06:24:05;;;;;;;;;27.75;27.75;;;;;4.48;100.00;102531.72;5082150;28;45245;-78
2024/01/29 06:26:30;;;;;;;;;27.50;25.25;;;;;4.51;100.00;102534.41;5082649;28;45226;-78
2024/01/29 06:28:56;;;;;;;;;31.50;27.50;;;;;4.55;100.00;102537.88;5080796;28;45320;-78
2024/01/29 06:31:21;;;;;;;;;30.50;29.75;;;;;4.65;100.00;102569.38;5084324;28;45942;-78
2024/01/29 06:33:46;;;;;;;;;33.75;25.00;;;;;4.53;100.00;102531.75;5083987;28;48041;-78
2024/01/29 06:36:15;;;;;;;;;30.25;27.75;;;;;4.68;100.00;102565.91;5083003;28;51468;-78
2024/01/29 06:38:41;;;;;;;;;35.50;32.00;;;;;4.62;100.00;102545.78;5081778;28;45374;-78
2024/01/29 06:41:06;;;;;;;;;33.75;31.75;;;;;4.56;100.00;102522.19;5080158;28;45443;-78
2024/01/29 06:43:31;;;;;;;;;25.75;25.75;;;;;4.56;100.00;102524.81;5079937;28;45473;-77
2024/01/29 06:45:56;;;;;;;;;40.75;33.50;;;;;4.69;100.00;102547.56;5080663;28;53737;-78
2024/01/29 06:48:22;;;;;;;;;28.75;28.75;;;;;4.49;100.00;102509.03;5061883;28;45408;-77
2024/01/29 06:50:47;;;;;;;;;26.25;24.50;;;;;4.85;100.00;102565.97;5077782;28;45319;-78
2024/01/29 06:53:12;;;;;;;;;30.25;27.75;;;;;4.85;100.00;102564.25;5076886;28;45640;-78
2024/01/29 06:55:38;;;;;;;;;30.25;26.50;;;;;4.68;100.00;102526.59;5081765;28;46189;-78
2024/01/29 06:58:03;;;;;;;;;25.25;25.25;;;;;4.93;100.00;102557.31;5077876;28;51222;-78
2024/01/29 07:00:31;;;;;;;;;31.75;28.50;;;;;4.88;100.00;102530.16;5080255;28;45353;-78
2024/01/29 07:02:57;;;;;;;;;24.50;22.25;;;;;4.93;100.00;102536.31;5062273;28;46049;-77
2024/01/29 07:05:22;;;;;;;;;25.50;22.00;;;;;5.11;100.00;102548.59;5071445;28;46105;-78
2024/01/29 07:07:50;;;;;;;;;34.50;29.25;;;;;4.88;100.00;102516.19;5086564;27;46426;-78
2024/01/29 07:10:16;;;;;;;;;28.25;24.50;;;;;5.25;100.00;102574.03;5098744;27;45481;-78
2024/01/29 07:12:41;;;;;;;;;33.75;26.00;;;;;5.27;100.00;102573.16;5090733;27;45366;-78
2024/01/29 07:15:07;;;;;;;;;17.25;11.25;;;;;5.42;100.00;102588.94;5098743;27;45352;-78
2024/01/29 07:17:32;;;;;;;;;30.75;26.00;;;;;5.35;100.00;102558.28;5095736;27;45308;-78
2024/01/29 07:19:58;;;;;;;;;22.25;22.25;;;;;5.51;100.00;102575.81;5085949;27;45509;-78
2024/01/29 07:22:24;;;;;;;;;22.75;22.75;;;;;5.44;100.00;102559.19;5064790;28;45508;-78
2024/01/29 07:24:50;;;;;;;;;29.00;24.00;;;;;5.64;100.00;102596.84;5088267;27;46243;-78
2024/01/29 07:27:18;;;;;;;;;23.75;21.75;;;;;5.71;100.00;102600.34;5094769;27;45483;-78
2024/01/29 07:29:44;;;;;;;;;28.00;24.50;;;;;5.62;100.00;102564.50;5099350;27;45416;-78
2024/01/29 07:32:09;;;;;;;;;26.00;24.25;;;;;5.79;100.00;102602.09;5098758;27;45545;-78
2024/01/29 07:34:36;;;;;;;;;23.00;23.00;;;;;5.77;100.00;102590.75;5099541;27;46049;-78
2024/01/29 07:37:02;;;;;;;;;22.75;18.25;;;;;5.83;100.00;102589.88;5095585;27;45281;-78
2024/01/29 07:39:28;;;;;;;;;27.00;23.25;;;;;5.83;100.00;102588.97;5083519;27;45285;-78
2024/01/29 07:41:53;;;;;;;;;17.75;14.50;;;;;6.03;100.00;102611.78;5098328;27;45293;-79
2024/01/29 07:44:19;;;;;;;;;25.00;23.00;;;;;6.09;100.00;102624.94;5097440;27;46723;-78
2024/01/29 07:46:44;;;;;;;;;25.75;22.75;;;;;5.80;100.00;102553.09;5094095;27;45469;-78
2024/01/29 07:49:10;;;;;;;;;25.50;22.00;;;;;6.01;100.00;102581.16;5091767;27;45222;-78
2024/01/29 07:51:39;;;;;;;;;27.50;20.25;;;;;6.22;100.00;102615.28;5091906;27;45350;-78
2024/01/29 07:54:07;;;;;;;;;27.00;24.25;;;;;6.13;100.00;102584.66;5078584;27;48020;-79
2024/01/29 07:56:39;;;;;;;;;21.00;20.75;;;;;6.21;100.00;102605.69;5068516;28;45513;-78
2024/01/29 07:59:05;;;;;;;;;24.00;20.50;;;;;6.27;100.00;102600.41;5088477;27;45486;-78
2024/01/29 08:01:30;;;;;;;;;23.00;20.75;;;;;6.48;100.00;102647.69;5066818;27;45471;-78
2024/01/29 08:03:56;;;;;;;;;24.50;23.50;;;;;6.53;100.00;102621.41;5093597;27;45435;-78
2024/01/29 08:06:23;;;;;;;;;26.00;22.75;;;;;6.02;100.00;102554.88;5079515;27;45400;-78
2024/01/29 08:08:51;;;;;;;;;23.25;20.25;;;;;6.66;100.00;102662.56;5071021;27;45320;-81
2024/01/29 08:11:16;;;;;;;;;23.00;20.25;;;;;6.36;100.00;102566.25;5060592;28;45267;-77
2024/01/29 08:13:45;;;;;;;;;24.75;23.50;;;;;5.95;100.00;102478.75;5075929;28;46261;-76
2024/01/29 08:16:10;;;;;;;;;20.50;18.50;;;;;5.96;100.00;102467.34;5055765;28;45483;-77
2024/01/29 08:18:36;;;;;;;;;22.00;20.75;;;;;6.62;100.00;102598.59;5079367;27;45506;-77
2024/01/29 08:21:12;;;;;;;;;25.25;22.25;;;;;6.08;100.00;102473.47;5079660;28;45365;-77
2024/01/29 08:23:43;;;;;;;;;24.50;24.50;;;;;6.62;100.00;102569.69;5060911;28;47569;-77
2024/01/29 08:26:09;;;;;;;;;24.25;18.50;;;;;6.62;100.00;102556.53;5064836;28;46161;-77
2024/01/29 08:28:36;;;;;;;;;27.75;22.50;;;;;6.41;100.00;102493.53;5078414;28;45506;-78
2024/01/29 08:31:01;;;;;;;;;21.75;18.25;;;;;6.65;100.00;102553.91;5066147;28;45470;-77
2024/01/29 08:33:33;;;;;;;;;23.75;23.25;;;;;6.89;100.00;102557.34;5072405;28;46200;-77
2024/01/29 08:35:58;;;;;;;;;25.50;21.00;;;;;7.23;100.00;102607.16;5072324;27;45492;-77
2024/01/29 08:38:23;;;;;;;;;21.00;18.25;;;;;7.23;100.00;102601.03;5064715;27;45712;-77
2024/01/29 08:40:49;;;;;;;;;27.25;20.25;;;;;7.17;100.00;102565.09;5089051;27;45423;-77
2024/01/29 08:43:23;;;;;;;;;23.50;19.00;;;;;6.90;100.00;102520.53;5070454;28;46683;-77
2024/01/29 08:45:48;;;;;;;;;25.25;23.25;;;;;7.18;100.00;102534.41;5076966;27;45471;-76
2024/01/29 08:48:13;;;;;;;;;27.50;21.50;;;;;7.30;100.00;102550.09;5083706;27;45494;-77
2024/01/29 08:50:48;;;;;;;;;24.50;23.25;;;;;7.60;100.00;102578.88;5067809;27;45508;-77
2024/01/29 08:53:14;;;;;;;;;20.00;18.50;;;;;7.61;100.00;102595.56;5073128;27;46394;-77
2024/01/29 08:56:31;;;;;;;;;27.00;22.25;;;;;7.63;100.00;102560.44;5090850;27;45488;-77
2024/01/29 08:59:00;;;;;;;;;19.25;16.75;;;;;8.00;100.00;102616.34;5072372;27;45383;-78
2024/01/29 09:01:57;;;;;;;;;25.50;22.00;;;;;7.48;100.00;102513.16;5061410;27;45326;-77
2024/01/29 09:04:51;;;;;;;;;27.25;22.75;;;;;7.52;100.00;102506.09;5064583;28;46413;-77
2024/01/29 09:07:35;;;;;;;;;26.50;24.75;;;;;8.06;100.00;102574.13;5086262;27;45446;-76
2024/01/29 09:10:23;;;;;;;;;19.25;19.25;;;;;8.57;100.00;102665.13;5077308;28;45340;-77
2024/01/29 09:12:49;;;;;;;;;23.75;22.25;;;;;7.81;100.00;102523.44;5048938;28;45558;-78
2024/01/29 09:15:20;;;;;;;;;26.25;20.75;;;;;8.19;100.00;102559.97;5060647;28;47093;-77
2024/01/29 09:17:45;;;;;;;;;26.00;19.00;;;;;8.04;100.00;102546.06;5078157;27;45493;-76
2024/01/29 09:20:12;;;;;;;;;25.00;20.00;;;;;8.08;100.00;102519.66;5085128;27;45433;-77
2024/01/29 09:22:43;;;;;;;;;27.50;21.25;;;;;8.74;100.00;102634.16;5093230;27;45252;-77
2024/01/29 09:25:08;;;;;;;;;23.33;20.33;;;;;8.22;100.00;102538.84;5062370;28;45621;-77
2024/01/29 09:27:35;;;;;;;;;23.33;19.33;;;;;8.73;100.00;102629.78;5057912;28;45254;-77
2024/01/29 09:30:01;;;;;;;;;31.67;22.33;;;;;8.13;100.00;102531.03;5079278;27;45321;-77
2024/01/29 09:32:30;;;;;;;;;24.00;21.75;;;;;8.84;100.00;102625.25;5082388;28;45291;-77
2024/01/29 09:34:55;;;;;;;;;24.67;21.00;;;;;8.22;100.00;102515.13;5083952;27;45522;-77
2024/01/29 09:37:21;;;;;;;;;20.00;18.67;;;;;8.44;100.00;102538.69;5077506;27;46019;-76
2024/01/29 09:39:50;;;;;;;;;21.00;20.00;;;;;8.51;100.00;102545.66;5083717;27;45720;-77
2024/01/29 09:42:20;;;;;;;;;23.00;20.00;;;;;8.72;100.00;102580.56;5060376;28;45310;-77
2024/01/29 09:44:50;;;;;;;;;21.00;18.67;;;;;8.77;100.00;102583.13;5080334;27;46244;-77
2024/01/29 09:47:26;;;;;;;;;25.75;23.00;;;;;8.97;100.00;102630.38;5081803;27;45357;-77
2024/01/29 09:49:51;;;;;;;;;28.00;24.50;;;;;8.41;100.00;102518.47;5062518;28;45293;-77
2024/01/29 09:52:23;;;;;;;;;27.25;21.50;;;;;8.61;100.00;102558.69;5078355;28;45371;-76
2024/01/29 09:54:52;;;;;;;;;23.25;20.25;;;;;9.14;100.00;102615.25;5060213;28;47195;-78
2024/01/29 09:57:24;;;;;;;;;23.50;20.25;;;;;8.83;100.00;102578.66;5077266;28;45364;-78
2024/01/29 09:59:53;;;;;;;;;26.75;19.00;;;;;8.43;100.00;102494.75;5081099;27;45289;-77
2024/01/29 10:02:22;;;;;;;;;22.50;20.25;;;;;9.22;100.00;102637.16;5065658;27;45669;-77
2024/01/29 10:04:48;;;;;;;;;26.00;21.67;;;;;9.11;100.00;102620.56;5089899;27;45502;-77
2024/01/29 10:07:21;;;;;;;;;26.67;22.67;;;;;8.83;100.00;102565.47;5082414;27;45251;-77
2024/01/29 10:09:50;;;;;;;;;23.00;20.00;;;;;8.88;100.00;102568.06;5084827;27;45505;-77
2024/01/29 10:12:28;;;;;;;;;22.67;17.67;;;;;8.77;100.00;102539.16;5085098;27;45274;-78
2024/01/29 10:14:55;;;;;;;;;26.67;21.67;;;;;9.20;100.00;102580.84;5065559;28;45570;-78
2024/01/29 10:17:23;;;;;;;;;16.00;15.33;;;;;9.16;100.00;102584.44;5081991;27;45530;-78
2024/01/29 10:19:48;;;;;;;;;19.33;15.00;;;;;9.02;100.00;102521.25;5083596;27;45301;-78
2024/01/29 10:22:14;;;;;;;;;18.67;16.00;;;;;9.28;100.00;102555.22;5063368;28;45498;-78
2024/01/29 10:25:01;;;;;;;;;15.33;14.67;;;;;9.88;100.00;102636.22;5062723;27;47277;-78
2024/01/29 10:27:26;;;;;;;;;16.33;15.67;;;;;10.03;100.00;102652.75;5082017;27;45385;-78
2024/01/29 10:29:54;;;;;;;;;18.00;17.00;;;;;9.46;100.00;102560.22;5078785;27;45464;-78
2024/01/29 10:32:29;;;;;;;;;20.00;15.00;;;;;9.43;100.00;102532.09;5081079;27;45550;-78
2024/01/29 10:35:12;;;;;;;;;16.33;12.33;;;;;9.36;100.00;102511.09;5074344;27;46964;-78
2024/01/29 10:38:04;;;;;;;;;21.00;17.33;;;;;9.64;100.00;102543.25;5078777;27;45317;-78
2024/01/29 10:41:02;;;;;;;;;11.67;11.33;;;;;10.23;100.00;102595.16;5061450;28;45394;-78
2024/01/29 10:43:37;;;;;;;;;19.00;15.67;;;;;9.79;100.00;102517.44;5063098;28;45563;-77
2024/01/29 10:46:11;;;;;;;;;11.67;11.00;;;;;10.19;100.00;102546.75;5078164;28;46229;-77
2024/01/29 10:48:39;;;;;;;;;16.00;13.67;;;;;10.16;100.00;102538.00;5062201;28;45275;-77
2024/01/29 10:51:12;;;;;;;;;19.00;15.00;;;;;10.47;100.00;102568.25;5058868;28;45542;-78
2024/01/29 10:53:41;;;;;;;;;17.00;13.00;;;;;10.49;100.00;102558.53;5076804;28;45579;-78
2024/01/29 10:56:11;;;;;;;;;15.67;12.67;;;;;10.69;100.00;102604.03;5079336;28;47159;-78
2024/01/29 10:58:40;;;;;;;;;14.33;14.33;;;;;10.21;100.00;102525.59;5084467;27;45288;-78
2024/01/29 11:01:06;;;;;;;;;17.33;13.00;;;;;10.54;100.00;102546.09;5069047;27;45458;-78
2024/01/29 11:03:34;;;;;;;;;16.33;16.33;;;;;11.02;100.00;102628.97;5076550;28;45445;-77
2024/01/29 11:06:13;;;;;;;;;13.00;13.00;;;;;11.08;100.00;102614.72;5084011;28;45563;-78
2024/01/29 11:08:42;;;;;;;;;16.33;13.33;;;;;10.29;100.00;102484.88;5082520;27;45407;-77